createdAt,value
2022-10-22T00:00:34.330Z,18.45
2022-10-22T00:03:00.958Z,18.77
2022-10-22T00:05:27.692Z,14.57
2022-10-22T00:07:54.260Z,16.75
2022-10-22T00:10:21.073Z,21.20
2022-10-22T00:12:47.583Z,17.15
2022-10-22T00:15:15.636Z,14.43
2022-10-22T00:17:42.615Z,20.67
2022-10-22T00:20:10.064Z,18.63
2022-10-22T00:22:36.691Z,17.60
2022-10-22T00:25:04.329Z,18.48
2022-10-22T00:27:30.894Z,19.70
2022-10-22T00:29:57.518Z,17.65
2022-10-22T00:32:25.399Z,19.83
2022-10-22T00:34:52.064Z,18.20
2022-10-22T00:37:18.613Z,18.10
2022-10-22T00:39:45.150Z,18.70
2022-10-22T00:42:17.825Z,18.20
2022-10-22T00:45:16.654Z,16.58
2022-10-22T00:47:48.813Z,17.17
2022-10-22T00:50:18.903Z,16.60
2022-10-22T00:52:45.819Z,13.18
2022-10-22T00:55:13.340Z,17.33
2022-10-22T00:57:40.486Z,13.00
2022-10-22T01:00:08.490Z,16.40
2022-10-22T01:02:35.884Z,16.13
2022-10-22T01:05:04.789Z,17.08
2022-10-22T01:07:31.478Z,14.75
2022-10-22T01:10:05.858Z,15.57
2022-10-22T01:12:43.063Z,17.40
2022-10-22T01:15:17.826Z,16.98
2022-10-22T01:17:51.790Z,18.83
2022-10-22T01:20:39.271Z,17.50
2022-10-22T01:23:21.238Z,18.60
2022-10-22T01:25:53.822Z,22.08
2022-10-22T01:28:31.854Z,20.65
2022-10-22T01:31:01.598Z,19.60
2022-10-22T01:33:30.188Z,21.95
2022-10-22T01:35:58.615Z,21.90
2022-10-22T01:38:26.337Z,17.70
2022-10-22T01:40:53.281Z,18.95
2022-10-22T01:43:20.009Z,24.45
2022-10-22T01:45:48.928Z,18.43
2022-10-22T01:48:40.838Z,18.63
2022-10-22T01:51:27.313Z,21.98
2022-10-22T01:53:59.848Z,18.75
2022-10-22T01:56:38.723Z,21.77
2022-10-22T01:59:14.569Z,21.45
2022-10-22T02:01:48.233Z,19.58
2022-10-22T02:04:21.314Z,14.70
2022-10-22T02:06:50.832Z,18.08
2022-10-22T02:09:21.702Z,17.75
2022-10-22T02:11:49.314Z,20.47
2022-10-22T02:14:19.218Z,16.95
2022-10-22T02:16:48.508Z,15.75
2022-10-22T02:19:22.802Z,17.88
2022-10-22T02:21:49.570Z,17.13
2022-10-22T02:24:16.779Z,16.33
2022-10-22T02:26:51.938Z,15.82
2022-10-22T02:29:21.767Z,18.40
2022-10-22T02:31:50.456Z,15.13
2022-10-22T02:34:22.514Z,14.73
2022-10-22T02:36:50.831Z,15.63
2022-10-22T02:39:19.999Z,15.20
2022-10-22T02:41:47.000Z,17.55
2022-10-22T02:44:13.665Z,14.23
2022-10-22T02:46:42.105Z,16.05
2022-10-22T02:49:08.721Z,18.30
2022-10-22T02:51:36.664Z,20.42
2022-10-22T02:54:05.399Z,13.00
2022-10-22T02:56:32.372Z,15.23
2022-10-22T02:58:59.011Z,16.83
2022-10-22T03:01:25.931Z,13.83
2022-10-22T03:03:52.534Z,17.48
2022-10-22T03:06:20.158Z,16.20
2022-10-22T03:08:48.171Z,17.23
2022-10-22T03:11:14.969Z,16.08
2022-10-22T03:13:41.532Z,16.17
2022-10-22T03:16:08.632Z,19.08
2022-10-22T03:18:35.506Z,17.40
2022-10-22T03:21:08.085Z,19.45
2022-10-22T03:23:36.137Z,16.48
2022-10-22T03:26:05.144Z,13.98
2022-10-22T03:28:31.796Z,16.42
2022-10-22T03:30:58.447Z,15.35
2022-10-22T03:33:25.154Z,14.57
2022-10-22T03:35:51.868Z,11.57
2022-10-22T03:38:18.631Z,13.73
2022-10-22T03:40:46.056Z,17.48
2022-10-22T03:43:14.958Z,11.63
2022-10-22T03:45:41.615Z,14.10
2022-10-22T03:48:08.223Z,11.93
2022-10-22T03:50:35.478Z,12.87
2022-10-22T03:53:02.105Z,11.77
2022-10-22T03:55:28.736Z,10.80
2022-10-22T03:57:55.333Z,10.27
2022-10-22T04:00:23.385Z,14.93
2022-10-22T04:02:49.956Z,11.05
2022-10-22T04:05:16.743Z,9.07
2022-10-22T04:07:43.438Z,11.43
2022-10-22T04:10:10.211Z,8.88
2022-10-22T04:12:36.761Z,8.27
2022-10-22T04:15:03.934Z,9.37
2022-10-22T04:17:34.948Z,11.77
2022-10-22T04:20:01.731Z,9.63
2022-10-22T04:22:28.430Z,8.40
2022-10-22T04:24:55.050Z,7.75
2022-10-22T04:27:21.597Z,8.50
2022-10-22T04:29:48.117Z,11.13
2022-10-22T04:32:14.698Z,8.93
2022-10-22T04:34:42.553Z,9.52
2022-10-22T04:37:09.125Z,6.75
2022-10-22T04:39:35.632Z,9.65
2022-10-22T04:42:02.168Z,7.82
2022-10-22T04:44:28.770Z,6.45
2022-10-22T04:46:55.329Z,11.05
2022-10-22T04:49:21.850Z,7.97
2022-10-22T04:51:49.768Z,11.40
2022-10-22T04:54:16.492Z,10.63
2022-10-22T04:56:43.009Z,9.43
2022-10-22T04:59:11.043Z,9.93
2022-10-22T05:01:42.760Z,11.07
2022-10-22T05:04:12.049Z,10.70
2022-10-22T05:06:38.618Z,9.77
2022-10-22T05:09:10.689Z,7.82
2022-10-22T05:11:39.425Z,11.23
2022-10-22T05:14:07.893Z,9.52
2022-10-22T05:16:35.127Z,9.27
2022-10-22T05:19:02.643Z,10.00
2022-10-22T05:21:29.325Z,9.18
2022-10-22T05:23:57.071Z,11.18
2022-10-22T05:26:25.938Z,9.23
2022-10-22T05:28:52.885Z,9.00
2022-10-22T05:31:27.113Z,8.80
2022-10-22T05:33:53.740Z,8.20
2022-10-22T05:36:22.372Z,9.75
2022-10-22T05:38:49.859Z,8.88
2022-10-22T05:41:17.950Z,9.80
2022-10-22T05:43:46.330Z,9.23
2022-10-22T05:46:16.623Z,10.70
2022-10-22T05:48:49.322Z,12.60
2022-10-22T05:51:16.145Z,10.85
2022-10-22T05:53:43.518Z,8.52
2022-10-22T05:56:12.866Z,8.00
2022-10-22T05:58:39.549Z,9.50
2022-10-22T06:01:10.958Z,8.70
2022-10-22T06:03:37.586Z,13.77
2022-10-22T06:06:12.147Z,15.40
2022-10-22T06:08:38.745Z,12.63
2022-10-22T06:11:05.558Z,10.73
2022-10-22T06:13:32.113Z,9.40
2022-10-22T06:15:58.932Z,9.45
2022-10-22T06:18:26.835Z,8.10
2022-10-22T06:20:53.365Z,5.88
2022-10-22T06:23:19.932Z,6.75
2022-10-22T06:25:56.518Z,9.02
2022-10-22T06:30:50.522Z,6.32
2022-10-22T06:33:17.075Z,7.20
2022-10-22T06:35:45.081Z,6.00
2022-10-22T06:38:11.744Z,4.53
2022-10-22T06:40:38.281Z,6.80
2022-10-22T06:43:04.792Z,7.87
2022-10-22T06:45:31.338Z,4.05
2022-10-22T06:47:57.848Z,7.22
2022-10-22T06:50:24.412Z,4.60
2022-10-22T06:52:52.325Z,8.07
2022-10-22T06:55:18.898Z,4.60
2022-10-22T06:57:47.090Z,5.13
2022-10-22T07:00:14.434Z,4.35
2022-10-22T07:02:41.399Z,6.78
2022-10-22T07:05:09.113Z,4.00
2022-10-22T07:07:35.631Z,5.13
2022-10-22T07:10:03.894Z,6.25
2022-10-22T07:12:30.475Z,5.63
2022-10-22T07:14:57.018Z,6.15
2022-10-22T07:17:23.550Z,5.40
2022-10-22T07:19:51.316Z,4.93
2022-10-22T07:22:18.720Z,5.00
2022-10-22T07:24:45.303Z,7.13
2022-10-22T07:27:13.297Z,6.70
2022-10-22T07:29:39.820Z,7.10
2022-10-22T07:32:06.798Z,5.83
2022-10-22T07:34:33.355Z,6.55
2022-10-22T07:36:59.988Z,6.57
2022-10-22T07:39:26.600Z,5.53
2022-10-22T07:41:53.256Z,5.65
2022-10-22T07:44:21.321Z,4.03
2022-10-22T07:46:49.019Z,3.67
2022-10-22T07:49:15.729Z,5.57
2022-10-22T07:51:42.348Z,5.35
2022-10-22T07:54:08.969Z,5.35
2022-10-22T07:56:35.544Z,7.80
2022-10-22T08:01:29.947Z,15.40
2022-10-22T08:03:56.498Z,7.57
2022-10-22T08:06:23.071Z,5.93
2022-10-22T08:08:49.658Z,5.70
2022-10-22T08:11:16.320Z,8.55
2022-10-22T08:13:45.396Z,7.32
2022-10-22T08:16:12.662Z,5.53
2022-10-22T08:18:40.599Z,4.35
2022-10-22T08:21:07.272Z,4.30
2022-10-22T08:23:33.847Z,6.70
2022-10-22T08:26:00.489Z,3.72
2022-10-22T08:28:27.115Z,4.20
2022-10-22T08:30:54.459Z,4.68
2022-10-22T08:33:21.583Z,4.57
2022-10-22T08:35:51.438Z,3.88
2022-10-22T08:38:19.286Z,4.57
2022-10-22T08:43:37.295Z,7.55
2022-10-22T08:46:13.127Z,4.43
2022-10-22T08:48:45.681Z,4.93
2022-10-22T08:51:20.621Z,3.92
2022-10-22T08:54:16.020Z,5.15
2022-10-22T08:56:45.509Z,5.07
2022-10-22T08:59:17.273Z,4.67
2022-10-22T09:01:47.729Z,5.25
2022-10-22T09:04:19.543Z,3.75
2022-10-22T09:06:49.593Z,4.55
2022-10-22T09:09:20.271Z,2.63
2022-10-22T09:11:49.620Z,4.57
2022-10-22T09:14:18.390Z,5.60
2022-10-22T09:17:04.979Z,4.60
2022-10-22T09:19:39.531Z,4.65
2022-10-22T09:22:17.846Z,7.03
2022-10-22T09:24:46.478Z,5.30
2022-10-22T09:27:16.275Z,15.15
2022-10-22T09:29:44.628Z,6.18
2022-10-22T09:32:11.401Z,6.22
2022-10-22T09:34:38.387Z,4.35
2022-10-22T09:37:07.525Z,8.17
2022-10-22T09:39:39.065Z,5.22
2022-10-22T09:42:06.309Z,6.72
2022-10-22T09:44:34.136Z,5.88
2022-10-22T09:47:03.440Z,4.82
2022-10-22T09:49:33.761Z,7.07
2022-10-22T09:52:01.125Z,8.25
2022-10-22T09:54:41.672Z,5.03
2022-10-22T09:57:14.776Z,5.18
2022-10-22T09:59:42.894Z,10.52
2022-10-22T10:02:26.574Z,9.77
2022-10-22T10:05:02.975Z,4.68
2022-10-22T10:07:31.923Z,4.45
2022-10-22T10:10:00.002Z,3.53
2022-10-22T10:12:36.077Z,5.53
2022-10-22T10:15:12.540Z,4.20
2022-10-22T10:17:45.012Z,5.32
2022-10-22T10:20:23.759Z,5.75
2022-10-22T10:22:58.301Z,5.60
2022-10-22T10:25:52.561Z,4.43
2022-10-22T10:28:31.270Z,6.97
2022-10-22T10:31:11.700Z,4.60
2022-10-22T10:33:46.931Z,4.32
2022-10-22T10:36:19.370Z,3.92
2022-10-22T10:38:56.164Z,4.00
2022-10-22T10:41:32.039Z,7.97
2022-10-22T10:44:17.556Z,6.50
2022-10-22T10:46:49.940Z,5.40
2022-10-22T10:49:20.030Z,3.50
2022-10-22T10:51:53.981Z,5.38
2022-10-22T10:54:34.054Z,4.60
2022-10-22T10:57:04.855Z,5.80
2022-10-22T10:59:45.061Z,3.88
2022-10-22T11:02:51.384Z,2.80
2022-10-22T11:05:31.994Z,5.32
2022-10-22T11:08:03.165Z,3.73
2022-10-22T11:10:33.789Z,4.78
2022-10-22T11:13:11.061Z,3.92
2022-10-22T11:15:39.959Z,3.88
2022-10-22T11:18:17.381Z,4.05
2022-10-22T11:20:51.920Z,3.80
2022-10-22T11:23:26.005Z,3.50
2022-10-22T11:25:52.830Z,4.50
2022-10-22T11:28:25.921Z,4.22
2022-10-22T11:30:59.366Z,4.50
2022-10-22T11:33:33.143Z,9.00
2022-10-22T11:36:02.460Z,7.53
2022-10-22T11:38:30.668Z,5.00
2022-10-22T11:41:01.991Z,4.15
2022-10-22T11:43:32.771Z,6.07
2022-10-22T11:46:24.834Z,5.63
2022-10-22T11:49:02.635Z,4.18
2022-10-22T11:51:33.980Z,4.10
2022-10-22T11:54:02.380Z,3.25
2022-10-22T11:56:37.597Z,4.72
2022-10-22T11:59:28.651Z,5.70
2022-10-22T12:01:55.873Z,4.45
2022-10-22T12:04:39.334Z,4.50
2022-10-22T12:07:32.385Z,3.58
2022-10-22T12:09:59.244Z,3.00
2022-10-22T12:12:28.844Z,3.53
2022-10-22T12:14:57.891Z,3.80
2022-10-22T12:17:26.044Z,5.47
2022-10-22T12:20:02.059Z,3.25
2022-10-22T12:22:31.469Z,3.55
2022-10-22T12:25:01.456Z,4.37
2022-10-22T12:27:33.650Z,4.68
2022-10-22T12:30:16.110Z,3.53
2022-10-22T12:32:42.683Z,3.88
2022-10-22T12:35:20.935Z,4.82
2022-10-22T12:37:50.328Z,2.70
2022-10-22T12:40:18.945Z,4.93
2022-10-22T12:42:51.082Z,5.22
2022-10-22T12:45:19.677Z,3.70
2022-10-22T12:47:47.275Z,5.47
2022-10-22T12:50:18.428Z,5.73
2022-10-22T12:52:45.230Z,3.20
2022-10-22T12:55:16.394Z,4.55
2022-10-22T12:57:43.101Z,4.18
2022-10-22T13:00:32.753Z,5.63
2022-10-22T13:03:02.807Z,5.77
2022-10-22T13:05:32.358Z,3.50
2022-10-22T13:08:05.052Z,5.72
2022-10-22T13:10:33.254Z,2.63
2022-10-22T13:13:00.527Z,6.40
2022-10-22T13:15:41.640Z,5.07
2022-10-22T13:18:17.983Z,4.40
2022-10-22T13:20:52.928Z,4.88
2022-10-22T13:23:20.794Z,4.72
2022-10-22T13:25:57.821Z,4.30
2022-10-22T13:28:24.691Z,2.90
2022-10-22T13:30:54.509Z,4.78
2022-10-22T13:33:24.295Z,5.13
2022-10-22T13:35:51.069Z,3.63
2022-10-22T13:38:20.616Z,5.05
2022-10-22T13:40:47.857Z,3.93
2022-10-22T13:43:14.738Z,5.32
2022-10-22T13:45:41.767Z,5.28
2022-10-22T13:48:13.697Z,4.60
2022-10-22T13:50:40.321Z,3.50
2022-10-22T13:53:18.671Z,5.10
2022-10-22T13:55:53.091Z,4.63
2022-10-22T13:58:21.421Z,4.13
2022-10-22T14:00:50.955Z,4.57
2022-10-22T14:03:21.648Z,3.47
2022-10-22T14:05:48.837Z,4.17
2022-10-22T14:08:17.602Z,3.58
2022-10-22T14:10:44.585Z,4.93
2022-10-22T14:13:12.244Z,3.58
2022-10-22T14:15:39.545Z,4.55
2022-10-22T14:18:08.281Z,2.60
2022-10-22T14:20:40.054Z,3.13
2022-10-22T14:23:14.502Z,4.75
2022-10-22T14:25:41.414Z,3.15
2022-10-22T14:28:09.371Z,4.75
2022-10-22T14:30:36.366Z,4.33
2022-10-22T14:33:09.065Z,5.30
2022-10-22T14:35:37.110Z,3.13
2022-10-22T14:38:03.711Z,4.55
2022-10-22T14:40:30.307Z,3.72
2022-10-22T14:42:56.944Z,4.50
2022-10-22T14:45:25.937Z,3.75
2022-10-22T14:47:53.437Z,4.70
2022-10-22T14:50:20.099Z,4.00
2022-10-22T14:52:48.373Z,4.05
2022-10-22T14:55:16.681Z,4.57
2022-10-22T14:57:44.121Z,6.15
2022-10-22T15:00:17.812Z,6.32
2022-10-22T15:02:45.286Z,7.78
2022-10-22T15:05:12.251Z,3.45
2022-10-22T15:07:39.596Z,2.80
2022-10-22T15:10:09.142Z,3.17
2022-10-22T15:12:35.930Z,4.40
2022-10-22T15:15:02.592Z,4.28
2022-10-22T15:17:29.182Z,5.70
2022-10-22T15:19:55.780Z,9.03
2022-10-22T15:22:22.407Z,8.00
2022-10-22T15:24:49.214Z,5.63
2022-10-22T15:27:17.171Z,5.97
2022-10-22T15:29:43.788Z,6.90
2022-10-22T15:32:10.716Z,6.40
2022-10-22T15:34:38.802Z,5.75
2022-10-22T15:37:08.351Z,5.95
2022-10-22T15:39:36.055Z,6.15
2022-10-22T15:42:02.652Z,5.53
2022-10-22T15:44:31.689Z,6.13
2022-10-22T15:46:58.742Z,4.80
2022-10-22T15:49:26.790Z,6.97
2022-10-22T15:51:54.283Z,6.03
2022-10-22T15:54:22.320Z,7.25
2022-10-22T15:56:49.045Z,6.30
2022-10-22T15:59:16.643Z,9.20
2022-10-22T16:01:45.000Z,7.22
2022-10-22T16:04:11.922Z,6.38
2022-10-22T16:06:47.754Z,6.35
2022-10-22T16:09:18.838Z,10.17
2022-10-22T16:11:48.409Z,7.88
2022-10-22T16:14:16.877Z,12.13
2022-10-22T16:16:46.583Z,9.93
2022-10-22T16:19:14.595Z,10.00
2022-10-22T16:21:41.197Z,8.73
2022-10-22T16:24:08.813Z,10.43
2022-10-22T16:26:35.627Z,9.40
2022-10-22T16:29:02.493Z,8.65
2022-10-22T16:31:29.101Z,9.48
2022-10-22T16:33:57.641Z,8.90
2022-10-22T16:36:24.322Z,8.68
2022-10-22T16:38:50.880Z,10.77
2022-10-22T16:41:19.186Z,8.02
2022-10-22T16:43:47.631Z,9.52
2022-10-22T16:46:15.355Z,18.33
2022-10-22T16:48:45.258Z,16.52
2022-10-22T16:51:15.539Z,14.25
2022-10-22T16:53:42.145Z,13.07
2022-10-22T16:56:08.928Z,12.18
2022-10-22T16:58:35.499Z,20.17
2022-10-22T17:01:06.290Z,28.45
2022-10-22T17:03:32.884Z,25.38
2022-10-22T17:05:59.504Z,22.20
2022-10-22T17:08:27.550Z,19.30
2022-10-22T17:10:54.099Z,16.23
2022-10-22T17:13:21.570Z,23.45
2022-10-22T17:15:48.184Z,20.05
2022-10-22T17:18:15.463Z,14.90
2022-10-22T17:20:42.427Z,18.13
2022-10-22T17:23:08.996Z,17.87
2022-10-22T17:25:41.974Z,12.50
2022-10-22T17:28:08.608Z,12.60
2022-10-22T17:30:35.301Z,11.52
2022-10-22T17:33:01.927Z,13.07
2022-10-22T17:35:28.640Z,13.25
2022-10-22T17:37:55.303Z,11.80
2022-10-22T17:40:22.364Z,8.95
2022-10-22T17:42:50.310Z,11.25
2022-10-22T17:45:16.918Z,11.88
2022-10-22T17:47:43.781Z,8.60
2022-10-22T17:50:10.884Z,9.43
2022-10-22T17:52:37.442Z,9.43
2022-10-22T17:55:04.899Z,10.18
2022-10-22T17:57:31.491Z,9.68
2022-10-22T17:59:59.390Z,8.63
2022-10-22T18:02:26.044Z,10.00
2022-10-22T18:04:52.706Z,8.95
2022-10-22T18:07:19.259Z,8.77
2022-10-22T18:09:46.006Z,8.05
2022-10-22T18:12:12.570Z,7.90
2022-10-22T18:14:40.091Z,6.63
2022-10-22T18:17:08.267Z,8.95
2022-10-22T18:19:34.918Z,8.05
2022-10-22T18:22:01.591Z,11.40
2022-10-22T18:24:28.134Z,8.20
2022-10-22T18:26:54.713Z,8.88
2022-10-22T18:29:21.282Z,6.85
2022-10-22T18:31:48.352Z,8.95
2022-10-22T18:34:19.018Z,9.20
2022-10-22T18:36:48.302Z,12.52
2022-10-22T18:39:15.583Z,11.93
2022-10-22T18:41:42.832Z,14.05
2022-10-22T18:44:12.657Z,11.82
2022-10-22T18:46:39.267Z,11.88
2022-10-22T18:49:06.934Z,13.23
2022-10-22T18:51:35.593Z,11.25
2022-10-22T18:54:21.672Z,11.70
2022-10-22T18:56:49.103Z,12.63
2022-10-22T18:59:18.051Z,12.38
2022-10-22T19:01:44.600Z,13.88
2022-10-22T19:09:39.721Z,13.82
2022-10-22T19:12:06.596Z,11.13
2022-10-22T19:14:33.336Z,13.60
2022-10-22T19:16:59.912Z,12.65
2022-10-22T19:19:26.656Z,13.43
2022-10-22T19:21:53.299Z,11.68
2022-10-22T19:24:21.337Z,10.65
2022-10-22T19:26:48.850Z,13.38
2022-10-22T19:29:17.212Z,13.13
2022-10-22T19:31:50.098Z,12.38
2022-10-22T19:34:17.162Z,15.75
2022-10-22T19:36:43.756Z,9.50
2022-10-22T19:39:10.331Z,11.18
2022-10-22T19:41:38.824Z,8.73
2022-10-22T19:44:05.401Z,16.90
2022-10-22T19:46:31.937Z,10.38
2022-10-22T19:48:58.741Z,12.48
2022-10-22T19:51:27.702Z,10.50
2022-10-22T19:53:58.140Z,13.18
2022-10-22T19:56:25.059Z,8.85
2022-10-22T19:58:53.105Z,10.82
2022-10-22T20:01:19.963Z,10.38
2022-10-22T20:03:46.761Z,12.82
2022-10-22T20:06:15.794Z,12.07
2022-10-22T20:08:42.856Z,11.63
2022-10-22T20:11:11.616Z,10.88
2022-10-22T20:16:07.598Z,9.77
2022-10-22T20:18:34.454Z,10.00
2022-10-22T20:21:04.248Z,10.13
2022-10-22T20:23:30.868Z,13.57
2022-10-22T20:25:57.513Z,10.27
2022-10-22T20:28:24.200Z,13.35
2022-10-22T20:30:50.814Z,11.90
2022-10-22T20:33:18.909Z,8.38
2022-10-22T20:35:45.403Z,10.80
2022-10-22T20:38:14.557Z,9.48
2022-10-22T20:40:41.451Z,9.15
2022-10-22T20:43:10.538Z,14.73
2022-10-22T20:45:38.899Z,11.27
2022-10-22T20:48:06.050Z,8.30
2022-10-22T20:50:34.257Z,8.73
2022-10-22T20:53:00.949Z,7.05
2022-10-22T20:55:27.667Z,11.60
2022-10-22T20:57:54.882Z,9.60
2022-10-22T21:00:21.551Z,12.68
2022-10-22T21:02:55.025Z,9.70
2022-10-22T21:05:21.599Z,7.88
2022-10-22T21:07:49.485Z,8.63
2022-10-22T21:10:16.089Z,8.68
2022-10-22T21:12:42.841Z,8.90
2022-10-22T21:15:12.597Z,9.05
2022-10-22T21:17:39.498Z,8.57
2022-10-22T21:20:06.725Z,8.70
2022-10-22T21:22:33.348Z,9.93
2022-10-22T21:25:01.339Z,9.27
2022-10-22T21:27:27.921Z,13.57
2022-10-22T21:29:54.591Z,8.02
2022-10-22T21:32:21.243Z,8.98
2022-10-22T21:34:47.834Z,9.48
2022-10-22T21:37:14.387Z,9.65
2022-10-22T21:39:42.153Z,11.57
2022-10-22T21:42:10.261Z,10.20
2022-10-22T21:44:36.803Z,13.13
2022-10-22T21:47:03.451Z,8.75
2022-10-22T21:49:30.213Z,8.25
2022-10-22T21:51:56.780Z,10.70
2022-10-22T21:54:23.475Z,13.57
2022-10-22T21:56:50.031Z,10.10
2022-10-22T21:59:20.307Z,11.93
2022-10-22T22:01:47.006Z,12.48
2022-10-22T22:04:13.643Z,11.70
2022-10-22T22:06:40.348Z,12.43
2022-10-22T22:09:07.250Z,8.88
2022-10-22T22:11:33.826Z,9.30
2022-10-22T22:14:00.334Z,10.82
2022-10-22T22:16:32.463Z,9.10
2022-10-22T22:19:00.781Z,10.40
2022-10-22T22:21:28.014Z,9.90
2022-10-22T22:23:54.634Z,10.23
2022-10-22T22:26:26.648Z,10.35
2022-10-22T22:28:56.372Z,11.02
2022-10-22T22:31:24.488Z,12.32
2022-10-22T22:33:57.837Z,12.18
2022-10-22T22:36:24.392Z,11.75
2022-10-22T22:38:53.922Z,10.43
2022-10-22T22:41:20.483Z,8.63
2022-10-22T22:43:47.045Z,11.75
2022-10-22T22:46:15.271Z,10.82
2022-10-22T22:48:41.815Z,12.10
2022-10-22T22:51:10.168Z,12.07
2022-10-22T22:53:36.703Z,12.30
2022-10-22T22:56:08.106Z,11.50
2022-10-22T22:58:35.394Z,10.48
2022-10-22T23:01:16.672Z,13.00
2022-10-22T23:03:45.097Z,11.73
2022-10-22T23:06:14.056Z,10.02
2022-10-22T23:08:41.129Z,12.73
2022-10-22T23:11:10.721Z,9.23
2022-10-22T23:13:38.056Z,13.65
2022-10-22T23:16:06.089Z,12.18
2022-10-22T23:18:32.765Z,10.93
2022-10-22T23:21:02.541Z,10.68
2022-10-22T23:23:31.642Z,11.82
2022-10-22T23:28:29.860Z,9.40
2022-10-22T23:30:56.484Z,11.77
2022-10-22T23:33:23.020Z,10.98
2022-10-22T23:35:49.559Z,11.63
2022-10-22T23:38:16.121Z,9.93
2022-10-22T23:40:44.052Z,10.02
2022-10-22T23:43:10.552Z,11.07
2022-10-22T23:45:37.068Z,11.07
2022-10-22T23:48:04.025Z,7.63
2022-10-22T23:50:30.579Z,9.25
2022-10-22T23:52:57.099Z,10.43
2022-10-22T23:55:23.727Z,10.65
2022-10-22T23:57:51.671Z,8.15
